Time;durP1;ratioP1;P1;durP2;ratioP2;P2;SDS_P1;SDS_P2;PMS_P1;PMS_P2;Temp;Humidity;BMP_temperature;BMP_pressure;BME280_temperature;BME280_humidity;BME280_pressure;Samples;Min_cycle;Max_cycle;Signal;HPM_P1;HPM_P2
2022/05/29 00:01:00;;;;;;;;;;;14.20;86.50;;;;;;4317229;33;43480;-76
2022/05/29 00:03:27;;;;;;;;;;;14.20;86.70;;;;;;4317331;33;42850;-76
2022/05/29 00:05:54;;;;;;;;;;;14.20;86.30;;;;;;4317801;33;43122;-76
2022/05/29 00:08:25;;;;;;;;;;;14.20;86.80;;;;;;4317130;33;42513;-76
2022/05/29 00:10:59;;;;;;;;;;;14.10;86.90;;;;;;4317019;33;44295;-76
2022/05/29 00:13:28;;;;;;;;;;;14.10;86.80;;;;;;4304494;33;43055;-76
2022/05/29 00:15:58;;;;;;;;;;;14.10;86.70;;;;;;4317077;33;43486;-76
2022/05/29 00:18:28;;;;;;;;;;;14.00;87.20;;;;;;4303807;33;42451;-76
2022/05/29 00:20:57;;;;;;;;;;;14.00;87.30;;;;;;4317346;33;42948;-76
2022/05/29 00:23:27;;;;;;;;;;;14.00;87.50;;;;;;4317242;33;42878;-76
2022/05/29 00:25:56;;;;;;;;;;;14.00;87.50;;;;;;4316798;33;44537;-76
2022/05/29 00:28:23;;;;;;;;;;;14.00;87.50;;;;;;4304953;33;20002;-76
2022/05/29 00:30:53;;;;;;;;;;;14.00;87.50;;;;;;4303747;33;43962;-76
2022/05/29 00:33:20;;;;;;;;;;;14.00;87.60;;;;;;4304095;33;43783;-76
2022/05/29 00:35:47;;;;;;;;;;;14.00;87.70;;;;;;4317167;33;43273;-76
2022/05/29 00:38:17;;;;;;;;;;;14.00;87.60;;;;;;4303916;33;42451;-76
2022/05/29 00:41:05;;;;;;;;;;;14.00;87.80;;;;;;4316986;33;43728;-76
2022/05/29 00:43:32;;;;;;;;;;;14.00;87.80;;;;;;4317219;33;43238;-76
2022/05/29 00:46:04;;;;;;;;;;;14.00;87.70;;;;;;4316520;33;43060;-76
2022/05/29 00:48:34;;;;;;;;;;;13.90;87.90;;;;;;4317057;33;43990;-76
2022/05/29 00:51:02;;;;;;;;;;;14.00;87.90;;;;;;4304129;33;42959;-76
2022/05/29 00:53:30;;;;;;;;;;;13.90;88.00;;;;;;4303537;33;43474;-76
2022/05/29 00:56:07;;;;;;;;;;;13.90;87.90;;;;;;4316135;33;43706;-76
2022/05/29 00:58:37;;;;;;;;;;;13.90;88.00;;;;;;4318055;33;20002;-76
2022/05/29 01:01:07;;;;;;;;;;;13.90;87.70;;;;;;4316201;33;43657;-76
2022/05/29 01:03:37;;;;;;;;;;;13.80;87.80;;;;;;4316864;33;43660;-76
2022/05/29 01:06:04;;;;;;;;;;;13.80;87.80;;;;;;4316422;33;42551;-76
2022/05/29 01:08:36;;;;;;;;;;;13.80;87.80;;;;;;4303461;33;43761;-76
2022/05/29 01:11:12;;;;;;;;;;;13.80;87.80;;;;;;4316904;33;42888;-76
2022/05/29 01:13:49;;;;;;;;;;;13.80;87.80;;;;;;4316271;33;43011;-76
2022/05/29 01:16:18;;;;;;;;;;;13.80;87.80;;;;;;4316134;33;43527;-76
2022/05/29 01:19:05;;;;;;;;;;;13.80;87.80;;;;;;4316732;33;43061;-76
2022/05/29 01:21:46;;;;;;;;;;;13.80;87.90;;;;;;4316283;33;43655;-76
2022/05/29 01:24:21;;;;;;;;;;;13.80;88.10;;;;;;4316519;33;43721;-76
2022/05/29 01:27:00;;;;;;;;;;;13.70;88.00;;;;;;4303607;33;43942;-76
2022/05/29 01:29:56;;;;;;;;;;;13.70;88.10;;;;;;4302996;33;42483;-76
2022/05/29 01:32:29;;;;;;;;;;;13.70;88.10;;;;;;4282338;33;42420;-76
2022/05/29 01:34:58;;;;;;;;;;;13.70;88.10;;;;;;4316046;33;43698;-76
2022/05/29 01:37:26;;;;;;;;;;;13.70;88.10;;;;;;4315860;33;42431;-75
2022/05/29 01:40:12;;;;;;;;;;;13.60;87.70;;;;;;4302617;33;43651;-76
2022/05/29 01:42:52;;;;;;;;;;;13.60;87.80;;;;;;4302645;33;43636;-75
2022/05/29 01:45:54;;;;;;;;;;;13.60;88.10;;;;;;4302722;33;43651;-75
2022/05/29 01:48:41;;;;;;;;;;;13.60;88.20;;;;;;4300618;33;44023;-76
2022/05/29 01:51:16;;;;;;;;;;;13.50;88.20;;;;;;4316152;33;45047;-75
2022/05/29 01:53:49;;;;;;;;;;;13.50;88.00;;;;;;4316212;33;43017;-75
2022/05/29 01:56:24;;;;;;;;;;;13.50;87.80;;;;;;4302920;33;42889;-75
2022/05/29 01:59:01;;;;;;;;;;;13.40;88.10;;;;;;4316607;33;20016;-75
2022/05/29 02:01:30;;;;;;;;;;;13.40;88.00;;;;;;4302332;33;43579;-75
2022/05/29 02:04:01;;;;;;;;;;;13.40;87.70;;;;;;4315589;33;42461;-75
2022/05/29 02:09:39;;;;;;;;;;;13.40;87.60;;;;;;4315514;33;43394;-75
2022/05/29 02:12:11;;;;;;;;;;;13.30;87.50;;;;;;4302510;33;42902;-75
2022/05/29 02:14:47;;;;;;;;;;;13.30;87.50;;;;;;4316016;33;43791;-75
2022/05/29 02:17:21;;;;;;;;;;;13.30;87.70;;;;;;4315745;33;42880;-75
2022/05/29 02:19:52;;;;;;;;;;;13.20;87.50;;;;;;4315716;33;42868;-75
2022/05/29 02:22:25;;;;;;;;;;;13.20;87.70;;;;;;4302427;33;43482;-75
2022/05/29 02:24:55;;;;;;;;;;;13.20;87.90;;;;;;4315832;33;42109;-75
2022/05/29 02:27:31;;;;;;;;;;;13.20;87.90;;;;;;4315426;33;45767;-75
2022/05/29 02:30:02;;;;;;;;;;;13.20;87.80;;;;;;4303358;33;20002;-75
2022/05/29 02:32:41;;;;;;;;;;;13.10;87.90;;;;;;4302414;33;43697;-75
2022/05/29 02:35:11;;;;;;;;;;;13.10;88.20;;;;;;4302703;33;43914;-75
2022/05/29 02:37:38;;;;;;;;;;;13.10;88.30;;;;;;4315443;33;44186;-75
2022/05/29 02:40:16;;;;;;;;;;;13.00;88.30;;;;;;4302461;33;43764;-75
2022/05/29 02:42:46;;;;;;;;;;;13.00;88.80;;;;;;4302776;33;43946;-75
2022/05/29 02:45:14;;;;;;;;;;;13.00;88.80;;;;;;4302748;33;44086;-75
2022/05/29 02:47:53;;;;;;;;;;;13.00;89.00;;;;;;4302275;33;42910;-75
2022/05/29 02:50:35;;;;;;;;;;;13.00;88.90;;;;;;4315246;33;43701;-75
2022/05/29 02:53:07;;;;;;;;;;;13.00;89.00;;;;;;4315613;33;42848;-75
2022/05/29 02:55:35;;;;;;;;;;;13.00;89.00;;;;;;4302771;33;43100;-75
2022/05/29 02:58:04;;;;;;;;;;;12.90;89.00;;;;;;4302545;33;42770;-75
2022/05/29 03:00:52;;;;;;;;;;;12.90;89.20;;;;;;4302513;33;43768;-75
2022/05/29 03:03:29;;;;;;;;;;;12.90;89.80;;;;;;4297081;33;43639;-75
2022/05/29 03:06:13;;;;;;;;;;;12.90;89.20;;;;;;4315780;33;43065;-75
2022/05/29 03:08:49;;;;;;;;;;;12.90;89.30;;;;;;4302067;33;43171;-75
2022/05/29 03:11:25;;;;;;;;;;;12.90;89.40;;;;;;4315320;33;43653;-75
2022/05/29 03:13:58;;;;;;;;;;;12.90;89.40;;;;;;4315710;33;43498;-75
2022/05/29 03:16:28;;;;;;;;;;;12.80;89.20;;;;;;4315625;33;43915;-75
2022/05/29 03:19:04;;;;;;;;;;;12.90;90.10;;;;;;4304678;33;44197;-75
2022/05/29 03:21:46;;;;;;;;;;;12.80;89.30;;;;;;4305040;33;43558;-75
2022/05/29 03:24:13;;;;;;;;;;;12.80;89.30;;;;;;4318311;33;43696;-75
2022/05/29 03:26:48;;;;;;;;;;;12.80;89.20;;;;;;4317641;33;42916;-75
2022/05/29 03:29:40;;;;;;;;;;;12.80;89.30;;;;;;4317961;33;44199;-75
2022/05/29 03:32:07;;;;;;;;;;;12.80;89.30;;;;;;4305166;33;43157;-75
2022/05/29 03:34:34;;;;;;;;;;;12.80;89.30;;;;;;4317540;33;42434;-75
2022/05/29 03:37:02;;;;;;;;;;;12.70;89.10;;;;;;4317805;33;43719;-75
2022/05/29 03:39:29;;;;;;;;;;;12.70;89.20;;;;;;4304735;33;42921;-75
2022/05/29 03:41:56;;;;;;;;;;;12.70;89.50;;;;;;4304626;33;43660;-75
2022/05/29 03:44:24;;;;;;;;;;;12.70;89.50;;;;;;4317866;33;42973;-75
2022/05/29 03:46:53;;;;;;;;;;;12.70;89.70;;;;;;4317594;33;44822;-75
2022/05/29 03:49:21;;;;;;;;;;;12.60;89.60;;;;;;4304521;33;43417;-75
2022/05/29 03:51:49;;;;;;;;;;;12.60;89.70;;;;;;4317858;33;44222;-75
2022/05/29 03:54:16;;;;;;;;;;;12.60;89.70;;;;;;4317787;33;43799;-75
2022/05/29 03:56:46;;;;;;;;;;;12.60;90.00;;;;;;4317245;33;43474;-75
2022/05/29 03:59:13;;;;;;;;;;;12.50;89.90;;;;;;4317272;33;42569;-75
2022/05/29 04:01:40;;;;;;;;;;;12.60;89.90;;;;;;4317011;33;43773;-75
2022/05/29 04:04:10;;;;;;;;;;;12.50;89.80;;;;;;4317158;33;43715;-75
2022/05/29 04:06:40;;;;;;;;;;;12.50;89.70;;;;;;4317096;33;43750;-75
2022/05/29 04:12:07;;;;;;;;;;;12.50;89.70;;;;;;4317163;33;42892;-75
2022/05/29 04:14:36;;;;;;;;;;;12.50;89.70;;;;;;4304086;33;43585;-75
2022/05/29 04:17:04;;;;;;;;;;;12.50;89.80;;;;;;4317415;33;43712;-75
2022/05/29 04:19:31;;;;;;;;;;;12.40;89.80;;;;;;4317245;33;42056;-75
2022/05/29 04:21:58;;;;;;;;;;;12.40;89.90;;;;;;4304121;33;43108;-75
2022/05/29 04:24:26;;;;;;;;;;;12.40;90.00;;;;;;4316953;33;42586;-75
2022/05/29 04:26:53;;;;;;;;;;;12.40;90.00;;;;;;4317059;33;43652;-75
2022/05/29 04:29:22;;;;;;;;;;;12.40;90.10;;;;;;4316519;33;43687;-75
2022/05/29 04:34:37;;;;;;;;;;;12.40;90.00;;;;;;4317201;33;43722;-75
2022/05/29 04:37:04;;;;;;;;;;;12.40;89.70;;;;;;4316823;33;42878;-75
2022/05/29 04:39:34;;;;;;;;;;;12.40;89.80;;;;;;4317263;33;43740;-75
2022/05/29 04:42:01;;;;;;;;;;;12.30;89.80;;;;;;4303632;33;43605;-75
2022/05/29 04:44:29;;;;;;;;;;;12.30;89.80;;;;;;4316964;33;42423;-75
2022/05/29 04:46:58;;;;;;;;;;;12.30;90.00;;;;;;4317138;33;42891;-75
2022/05/29 04:49:25;;;;;;;;;;;12.30;90.10;;;;;;4316572;33;43717;-75
2022/05/29 04:51:55;;;;;;;;;;;12.20;90.10;;;;;;4303491;33;43093;-75
2022/05/29 04:54:22;;;;;;;;;;;12.20;90.20;;;;;;4316421;33;42472;-75
2022/05/29 04:56:49;;;;;;;;;;;12.20;90.30;;;;;;4303345;33;42421;-75
2022/05/29 04:59:19;;;;;;;;;;;12.20;90.50;;;;;;4316390;33;43482;-75
2022/05/29 05:01:46;;;;;;;;;;;12.10;90.70;;;;;;4303276;33;42186;-75
2022/05/29 05:04:13;;;;;;;;;;;12.10;91.00;;;;;;4303409;33;42272;-75
2022/05/29 05:06:40;;;;;;;;;;;12.10;91.10;;;;;;4303765;33;42932;-75
2022/05/29 05:09:07;;;;;;;;;;;12.10;91.30;;;;;;4316560;33;43033;-75
2022/05/29 05:11:37;;;;;;;;;;;12.10;91.60;;;;;;4303029;33;44191;-75
2022/05/29 05:14:22;;;;;;;;;;;12.10;91.80;;;;;;4314067;33;44530;-75
2022/05/29 05:16:49;;;;;;;;;;;12.10;91.80;;;;;;4303579;33;43000;-75
2022/05/29 05:19:17;;;;;;;;;;;12.10;92.00;;;;;;4316142;33;43700;-75
2022/05/29 05:21:45;;;;;;;;;;;12.10;92.00;;;;;;4316495;33;43147;-75
2022/05/29 05:24:18;;;;;;;;;;;12.10;92.20;;;;;;4316462;33;42224;-75
2022/05/29 05:26:45;;;;;;;;;;;12.10;92.30;;;;;;4315948;33;42834;-75
2022/05/29 05:29:14;;;;;;;;;;;12.10;92.50;;;;;;4316039;33;42570;-75
2022/05/29 05:31:41;;;;;;;;;;;12.10;92.60;;;;;;4315861;33;43651;-75
2022/05/29 05:34:08;;;;;;;;;;;12.10;92.80;;;;;;4316506;33;43671;-76
2022/05/29 05:36:41;;;;;;;;;;;12.10;92.80;;;;;;4302907;33;42509;-75
2022/05/29 05:39:16;;;;;;;;;;;12.10;92.60;;;;;;4316299;33;43860;-75
2022/05/29 05:41:47;;;;;;;;;;;12.20;92.60;;;;;;4315189;33;42898;-75
2022/05/29 05:44:23;;;;;;;;;;;12.10;92.80;;;;;;4303405;33;44004;-75
2022/05/29 05:46:57;;;;;;;;;;;12.20;93.20;;;;;;4315979;33;43481;-75
2022/05/29 05:49:30;;;;;;;;;;;12.20;93.10;;;;;;4316150;33;44634;-75
2022/05/29 05:52:04;;;;;;;;;;;12.20;93.20;;;;;;4316060;33;43677;-75
2022/05/29 05:54:45;;;;;;;;;;;12.10;93.20;;;;;;4302894;33;42850;-75
2022/05/29 05:57:22;;;;;;;;;;;12.20;93.30;;;;;;4315966;33;43586;-75
2022/05/29 05:59:58;;;;;;;;;;;12.20;93.20;;;;;;4315947;33;43711;-75
2022/05/29 06:02:34;;;;;;;;;;;12.20;93.60;;;;;;4315647;33;42870;-76
2022/05/29 06:05:01;;;;;;;;;;;12.20;93.50;;;;;;4316243;33;44208;-75
2022/05/29 06:07:34;;;;;;;;;;;12.20;93.70;;;;;;4302587;33;42890;-75
2022/05/29 06:10:07;;;;;;;;;;;12.20;93.80;;;;;;4315543;33;42463;-75
2022/05/29 06:12:46;;;;;;;;;;;12.20;93.60;;;;;;4315903;33;43765;-76
2022/05/29 06:15:21;;;;;;;;;;;12.20;93.80;;;;;;4315654;33;42991;-76
2022/05/29 06:17:57;;;;;;;;;;;12.20;93.90;;;;;;4315743;33;44177;-75
2022/05/29 06:20:29;;;;;;;;;;;12.20;93.90;;;;;;4316029;33;43976;-75
2022/05/29 06:23:08;;;;;;;;;;;12.20;94.00;;;;;;4315443;33;42517;-76
2022/05/29 06:25:41;;;;;;;;;;;12.30;94.10;;;;;;4315922;33;44054;-76
2022/05/29 06:28:14;;;;;;;;;;;12.30;94.30;;;;;;4302549;33;42484;-76
2022/05/29 06:30:44;;;;;;;;;;;12.30;94.40;;;;;;4315986;33;44968;-76
2022/05/29 06:33:17;;;;;;;;;;;12.30;94.40;;;;;;4315818;33;44700;-76
2022/05/29 06:35:47;;;;;;;;;;;12.30;94.70;;;;;;4303640;33;20006;-76
2022/05/29 06:38:21;;;;;;;;;;;12.30;94.60;;;;;;4302505;33;43859;-76
2022/05/29 06:40:52;;;;;;;;;;;12.30;94.30;;;;;;4315439;33;42814;-76
2022/05/29 06:43:30;;;;;;;;;;;12.30;94.60;;;;;;4315237;33;42827;-76
2022/05/29 06:46:06;;;;;;;;;;;12.30;94.20;;;;;;4302837;33;43115;-76
2022/05/29 06:48:47;;;;;;;;;;;12.40;94.20;;;;;;4302242;33;43723;-76
2022/05/29 06:51:29;;;;;;;;;;;12.30;94.20;;;;;;4302852;33;43716;-76
2022/05/29 06:54:00;;;;;;;;;;;12.40;94.40;;;;;;4318081;33;43002;-76
2022/05/29 06:56:36;;;;;;;;;;;12.40;94.50;;;;;;4318219;33;42508;-76
2022/05/29 06:59:11;;;;;;;;;;;12.40;94.40;;;;;;4305041;33;42925;-76
2022/05/29 07:07:35;;;;;;;;;;;12.40;94.40;;;;;;4279175;33;20035;-76
2022/05/29 07:10:11;;;;;;;;;;;12.50;94.50;;;;;;4318285;33;42465;-76
2022/05/29 07:12:52;;;;;;;;;;;12.40;94.30;;;;;;4304998;33;42846;-76
2022/05/29 07:15:21;;;;;;;;;;;12.40;94.10;;;;;;4318352;33;43695;-76
2022/05/29 07:17:50;;;;;;;;;;;12.40;94.20;;;;;;4318015;33;42416;-76
2022/05/29 07:20:26;;;;;;;;;;;12.50;94.60;;;;;;4317900;33;43706;-76
2022/05/29 07:22:59;;;;;;;;;;;12.50;94.60;;;;;;4304567;33;44196;-76
2022/05/29 07:25:31;;;;;;;;;;;12.50;95.00;;;;;;4305440;33;43686;-76
2022/05/29 07:28:02;;;;;;;;;;;12.50;95.10;;;;;;4317531;33;44321;-76
2022/05/29 07:30:35;;;;;;;;;;;12.50;95.20;;;;;;4317738;33;42811;-76
2022/05/29 07:33:05;;;;;;;;;;;12.50;95.20;;;;;;4317845;33;42630;-76
2022/05/29 07:35:33;;;;;;;;;;;12.50;95.40;;;;;;4317776;33;42993;-76
2022/05/29 07:38:14;;;;;;;;;;;12.50;95.30;;;;;;4318780;33;20012;-76
2022/05/29 07:40:44;;;;;;;;;;;12.50;95.20;;;;;;4305071;33;43186;-76
2022/05/29 07:43:25;;;;;;;;;;;12.50;95.20;;;;;;4304744;33;43856;-76
2022/05/29 07:46:04;;;;;;;;;;;12.50;95.00;;;;;;4317919;33;44096;-76
2022/05/29 07:48:37;;;;;;;;;;;12.50;94.90;;;;;;4304193;33;43575;-76
2022/05/29 07:51:13;;;;;;;;;;;12.50;94.90;;;;;;4317713;33;42859;-76
2022/05/29 07:53:49;;;;;;;;;;;12.50;94.90;;;;;;4317761;33;44793;-76
2022/05/29 07:56:27;;;;;;;;;;;12.50;95.00;;;;;;4317317;33;42471;-76
2022/05/29 07:59:03;;;;;;;;;;;12.50;95.40;;;;;;4317601;33;42802;-76
2022/05/29 08:01:41;;;;;;;;;;;12.60;95.10;;;;;;4303819;33;43025;-76
2022/05/29 08:04:20;;;;;;;;;;;12.60;95.00;;;;;;4316571;33;42510;-77
2022/05/29 08:06:47;;;;;;;;;;;12.60;94.90;;;;;;4304359;33;43592;-77
2022/05/29 08:09:23;;;;;;;;;;;12.60;95.00;;;;;;4317437;33;43681;-76
2022/05/29 08:11:56;;;;;;;;;;;12.60;94.90;;;;;;4317533;33;43482;-76
2022/05/29 08:14:32;;;;;;;;;;;12.60;94.90;;;;;;4304392;33;42951;-76
2022/05/29 08:17:07;;;;;;;;;;;12.60;94.80;;;;;;4304369;33;44840;-76
2022/05/29 08:19:48;;;;;;;;;;;12.60;94.60;;;;;;4317024;33;42606;-77
2022/05/29 08:22:21;;;;;;;;;;;12.60;94.50;;;;;;4303677;33;43025;-76
2022/05/29 08:30:51;;;;;;;;;;;12.60;94.90;;;;;;4317121;33;43987;-76
2022/05/29 08:33:39;;;;;;;;;;;12.60;95.20;;;;;;4317086;33;42114;-76
2022/05/29 08:36:14;;;;;;;;;;;12.60;95.20;;;;;;4316990;33;42494;-76
2022/05/29 08:38:48;;;;;;;;;;;12.60;95.30;;;;;;4303800;33;43665;-76
2022/05/29 08:41:27;;;;;;;;;;;12.60;95.70;;;;;;4317300;33;22176;-76
2022/05/29 08:44:11;;;;;;;;;;;12.60;95.40;;;;;;4303929;33;42128;-76
2022/05/29 08:46:52;;;;;;;;;;;12.60;95.50;;;;;;4317305;33;43029;-76
2022/05/29 08:49:25;;;;;;;;;;;12.60;95.70;;;;;;4316547;33;44184;-76
2022/05/29 08:52:13;;;;;;;;;;;12.60;96.10;;;;;;4304345;33;43857;-76
2022/05/29 08:54:49;;;;;;;;;;;12.60;95.80;;;;;;4316550;33;42156;-77
2022/05/29 08:57:41;;;;;;;;;;;12.60;95.90;;;;;;4316546;33;43772;-76
2022/05/29 09:00:29;;;;;;;;;;;12.60;96.00;;;;;;4303834;33;43681;-76
2022/05/29 09:03:25;;;;;;;;;;;12.60;96.10;;;;;;4316370;33;43790;-76
2022/05/29 09:06:03;;;;;;;;;;;12.70;96.20;;;;;;4303784;33;45031;-76
2022/05/29 09:08:38;;;;;;;;;;;12.60;96.00;;;;;;4316653;33;43077;-76
2022/05/29 09:11:21;;;;;;;;;;;12.70;95.90;;;;;;4316499;33;43458;-76
2022/05/29 09:14:11;;;;;;;;;;;12.70;95.90;;;;;;4303479;33;42514;-76
2022/05/29 09:16:54;;;;;;;;;;;12.70;95.60;;;;;;4316388;33;43446;-76
2022/05/29 09:19:43;;;;;;;;;;;12.70;95.70;;;;;;4316801;33;43024;-76
2022/05/29 09:22:26;;;;;;;;;;;12.70;95.40;;;;;;4316375;33;42902;-76
2022/05/29 09:25:06;;;;;;;;;;;12.70;95.50;;;;;;4316623;33;43658;-76
2022/05/29 09:27:47;;;;;;;;;;;12.70;95.20;;;;;;4316639;33;43852;-76
2022/05/29 09:30:30;;;;;;;;;;;12.80;95.30;;;;;;4316233;33;42155;-76
2022/05/29 09:33:13;;;;;;;;;;;12.70;95.30;;;;;;4302874;33;43897;-76
2022/05/29 09:35:50;;;;;;;;;;;12.80;95.40;;;;;;4303304;33;44170;-76
2022/05/29 09:38:56;;;;;;;;;;;12.70;95.50;;;;;;4316393;33;45373;-76
2022/05/29 09:41:33;;;;;;;;;;;12.80;95.40;;;;;;4316151;33;43195;-76
2022/05/29 09:44:16;;;;;;;;;;;12.80;95.60;;;;;;4302621;33;43489;-76
2022/05/29 09:50:09;;;;;;;;;;;12.80;95.00;;;;;;4288333;33;44935;-76
2022/05/29 09:52:48;;;;;;;;;;;12.80;95.10;;;;;;4302903;33;42818;-76
2022/05/29 09:55:28;;;;;;;;;;;12.80;95.10;;;;;;4316488;33;43104;-76
2022/05/29 09:58:04;;;;;;;;;;;12.80;95.10;;;;;;4316432;33;43012;-76
2022/05/29 10:00:43;;;;;;;;;;;12.80;95.10;;;;;;4303079;33;43608;-76
2022/05/29 10:03:30;;;;;;;;;;;12.80;95.30;;;;;;4299982;33;43859;-77
2022/05/29 10:06:16;;;;;;;;;;;12.80;95.80;;;;;;4301607;33;43013;-76
2022/05/29 10:08:55;;;;;;;;;;;12.90;95.20;;;;;;4300479;33;43735;-77
2022/05/29 10:11:31;;;;;;;;;;;12.90;95.30;;;;;;4301211;33;43845;-76
2022/05/29 10:14:21;;;;;;;;;;;12.90;95.20;;;;;;4300458;33;42680;-76
2022/05/29 10:16:49;;;;;;;;;;;12.90;95.10;;;;;;4301675;33;43870;-77
2022/05/29 10:19:37;;;;;;;;;;;12.90;95.10;;;;;;4301371;33;42898;-77
2022/05/29 10:22:19;;;;;;;;;;;12.90;95.30;;;;;;4301456;33;44180;-77
2022/05/29 10:24:57;;;;;;;;;;;12.90;95.00;;;;;;4301445;33;43953;-76
2022/05/29 10:27:39;;;;;;;;;;;12.90;94.90;;;;;;4301052;33;43442;-76
2022/05/29 10:30:31;;;;;;;;;;;12.90;94.80;;;;;;4304371;33;45865;-77
2022/05/29 10:33:16;;;;;;;;;;;13.00;94.90;;;;;;4304578;33;44195;-76
2022/05/29 10:35:58;;;;;;;;;;;13.00;94.90;;;;;;4302849;33;44258;-77
2022/05/29 10:38:30;;;;;;;;;;;13.00;94.90;;;;;;4304087;33;44199;-76
2022/05/29 10:41:03;;;;;;;;;;;13.00;94.90;;;;;;4304209;33;44121;-76
2022/05/29 10:43:54;;;;;;;;;;;13.00;94.70;;;;;;4304222;33;20368;-77
2022/05/29 10:46:41;;;;;;;;;;;13.00;94.70;;;;;;4302895;33;45777;-76
2022/05/29 10:49:34;;;;;;;;;;;13.00;94.70;;;;;;4302177;33;44835;-76
2022/05/29 10:52:15;;;;;;;;;;;13.00;94.50;;;;;;4304211;33;43951;-75
2022/05/29 10:55:07;;;;;;;;;;;13.00;94.50;;;;;;4303598;33;42689;-77
2022/05/29 10:57:43;;;;;;;;;;;13.00;94.50;;;;;;4303125;33;43493;-77
2022/05/29 11:00:37;;;;;;;;;;;13.00;94.60;;;;;;4303799;33;42160;-76
2022/05/29 11:03:22;;;;;;;;;;;13.00;94.40;;;;;;4302078;33;42476;-76
2022/05/29 11:06:09;;;;;;;;;;;13.00;94.40;;;;;;4302857;33;43533;-76
2022/05/29 11:08:55;;;;;;;;;;;13.00;94.40;;;;;;4302503;33;44146;-76
2022/05/29 11:11:45;;;;;;;;;;;13.00;94.30;;;;;;4303898;33;43121;-76
2022/05/29 11:14:39;;;;;;;;;;;13.10;94.50;;;;;;4304558;33;19990;-76
2022/05/29 11:17:18;;;;;;;;;;;13.10;94.50;;;;;;4303872;33;43887;-76
2022/05/29 11:20:02;;;;;;;;;;;13.10;94.50;;;;;;4302898;33;43013;-77
2022/05/29 11:22:48;;;;;;;;;;;13.10;94.40;;;;;;4303701;33;43553;-77
2022/05/29 11:25:18;;;;;;;;;;;13.10;94.40;;;;;;4303522;33;42533;-76
2022/05/29 11:28:00;;;;;;;;;;;13.10;94.30;;;;;;4303356;33;44776;-76
2022/05/29 11:30:33;;;;;;;;;;;13.20;94.40;;;;;;4302436;33;44756;-76
2022/05/29 11:33:13;;;;;;;;;;;13.20;94.60;;;;;;4303416;33;44231;-76
2022/05/29 11:35:51;;;;;;;;;;;13.20;94.60;;;;;;4303086;33;44102;-77
2022/05/29 11:38:39;;;;;;;;;;;13.20;94.70;;;;;;4302264;33;42921;-77
2022/05/29 11:41:50;;;;;;;;;;;13.20;94.70;;;;;;4303538;33;42836;-76
2022/05/29 11:44:26;;;;;;;;;;;13.20;94.60;;;;;;4245296;33;20004;-76
2022/05/29 11:53:28;;;;;;;;;;;13.30;94.40;;;;;;4303114;33;43054;-76
2022/05/29 11:56:03;;;;;;;;;;;13.30;94.50;;;;;;4296950;33;44371;-76
2022/05/29 11:58:46;;;;;;;;;;;13.30;94.60;;;;;;4303069;33;42210;-76
2022/05/29 12:01:27;;;;;;;;;;;13.30;94.20;;;;;;4303369;33;42802;-75
2022/05/29 12:04:05;;;;;;;;;;;13.40;94.40;;;;;;4304551;33;42931;-77
2022/05/29 12:06:37;;;;;;;;;;;13.40;94.40;;;;;;4317527;33;42510;-77
2022/05/29 12:09:05;;;;;;;;;;;13.40;94.20;;;;;;4304733;33;43426;-76
2022/05/29 12:11:58;;;;;;;;;;;13.40;94.20;;;;;;4317394;33;42038;-77
2022/05/29 12:14:49;;;;;;;;;;;13.40;94.30;;;;;;4318224;33;20106;-77
2022/05/29 12:17:25;;;;;;;;;;;13.40;94.30;;;;;;4317001;33;43711;-77
2022/05/29 12:20:17;;;;;;;;;;;13.50;94.60;;;;;;4317532;33;43695;-77
2022/05/29 12:22:59;;;;;;;;;;;13.50;94.60;;;;;;4304437;33;43400;-77
2022/05/29 12:25:57;;;;;;;;;;;13.60;94.40;;;;;;4317510;33;43092;-77
2022/05/29 12:28:38;;;;;;;;;;;13.60;94.20;;;;;;4317217;33;44199;-77
2022/05/29 12:31:17;;;;;;;;;;;13.60;94.10;;;;;;4304204;33;44139;-77
2022/05/29 12:33:45;;;;;;;;;;;13.60;94.10;;;;;;4303976;33;42504;-77
2022/05/29 12:36:30;;;;;;;;;;;13.60;94.00;;;;;;4316998;33;42081;-77
2022/05/29 12:39:16;;;;;;;;;;;13.60;94.00;;;;;;4317191;33;42124;-77
2022/05/29 12:41:46;;;;;;;;;;;13.60;94.00;;;;;;4317137;33;43192;-77
2022/05/29 12:44:13;;;;;;;;;;;13.60;94.00;;;;;;4303685;33;43773;-77
2022/05/29 12:47:10;;;;;;;;;;;13.60;94.00;;;;;;4317076;33;43430;-76
2022/05/29 12:49:57;;;;;;;;;;;13.60;94.00;;;;;;4289820;33;44012;-77
2022/05/29 12:52:34;;;;;;;;;;;13.60;93.90;;;;;;4304156;33;44871;-77
2022/05/29 12:55:21;;;;;;;;;;;13.60;93.90;;;;;;4304254;33;43104;-77
2022/05/29 12:58:08;;;;;;;;;;;13.60;94.10;;;;;;4303754;33;42837;-77
2022/05/29 13:01:07;;;;;;;;;;;13.70;94.00;;;;;;4316409;33;43716;-77
2022/05/29 13:04:04;;;;;;;;;;;13.60;94.00;;;;;;4283976;33;43640;-77
2022/05/29 13:06:51;;;;;;;;;;;13.60;94.00;;;;;;4316886;33;44228;-76
2022/05/29 13:09:33;;;;;;;;;;;13.70;94.10;;;;;;4316778;33;43710;-77
2022/05/29 13:12:20;;;;;;;;;;;13.70;94.10;;;;;;4303327;33;43478;-76
2022/05/29 13:14:49;;;;;;;;;;;13.70;94.10;;;;;;4316594;33;43650;-76
2022/05/29 13:17:33;;;;;;;;;;;13.70;94.10;;;;;;4316575;33;43017;-76
2022/05/29 13:20:08;;;;;;;;;;;13.70;93.90;;;;;;4316505;33;42175;-76
2022/05/29 13:22:49;;;;;;;;;;;13.70;93.90;;;;;;4316409;33;43482;-76
2022/05/29 13:25:23;;;;;;;;;;;13.70;93.90;;;;;;4316708;33;43672;-76
2022/05/29 13:27:56;;;;;;;;;;;13.70;94.20;;;;;;4303457;33;42182;-76
2022/05/29 13:30:42;;;;;;;;;;;13.70;94.50;;;;;;4303213;33;42854;-76
2022/05/29 13:33:30;;;;;;;;;;;13.70;94.90;;;;;;4316283;33;42583;-76
2022/05/29 13:35:57;;;;;;;;;;;13.70;95.10;;;;;;4316401;33;43442;-76
2022/05/29 13:38:43;;;;;;;;;;;13.70;95.00;;;;;;4315943;33;43751;-76
2022/05/29 13:41:30;;;;;;;;;;;13.60;95.00;;;;;;4315918;33;42946;-76
2022/05/29 13:44:18;;;;;;;;;;;13.60;95.20;;;;;;4303129;33;43677;-76
2022/05/29 13:46:50;;;;;;;;;;;13.70;95.20;;;;;;4307702;33;20062;-76
2022/05/29 13:49:20;;;;;;;;;;;13.70;95.10;;;;;;4316127;33;44642;-76
2022/05/29 13:51:48;;;;;;;;;;;13.70;95.10;;;;;;4315794;33;42387;-76
2022/05/29 13:54:26;;;;;;;;;;;13.70;95.10;;;;;;4303401;33;43139;-76
2022/05/29 13:57:05;;;;;;;;;;;13.70;94.90;;;;;;4316186;33;43794;-76
2022/05/29 14:05:42;;;;;;;;;;;13.80;95.10;;;;;;4315940;33;43758;-76
2022/05/29 14:08:34;;;;;;;;;;;13.80;95.20;;;;;;4315632;33;44163;-76
2022/05/29 14:11:04;;;;;;;;;;;13.80;95.30;;;;;;4315911;33;43670;-76
2022/05/29 14:13:46;;;;;;;;;;;13.80;95.50;;;;;;4315625;33;42406;-77
2022/05/29 14:16:28;;;;;;;;;;;13.80;95.80;;;;;;4316395;33;43186;-77
2022/05/29 14:19:07;;;;;;;;;;;13.80;96.20;;;;;;4316184;33;20001;-76
2022/05/29 14:21:42;;;;;;;;;;;13.80;96.20;;;;;;4315463;33;42849;-77
2022/05/29 14:24:27;;;;;;;;;;;13.70;96.40;;;;;;4315915;33;42103;-77
2022/05/29 14:27:14;;;;;;;;;;;13.70;96.30;;;;;;4315831;33;43667;-76
2022/05/29 14:30:04;;;;;;;;;;;13.70;96.70;;;;;;4302462;33;43600;-77
2022/05/29 14:32:50;;;;;;;;;;;13.70;96.60;;;;;;4315454;33;43702;-77
2022/05/29 14:35:36;;;;;;;;;;;13.70;96.50;;;;;;4315719;33;43740;-78
2022/05/29 14:38:06;;;;;;;;;;;13.70;96.80;;;;;;4315944;33;42399;-77
2022/05/29 14:40:40;;;;;;;;;;;13.70;96.80;;;;;;4302296;33;43106;-78
2022/05/29 14:43:13;;;;;;;;;;;13.70;96.80;;;;;;4315953;33;43894;-77
2022/05/29 14:45:45;;;;;;;;;;;13.70;96.80;;;;;;4315921;33;43891;-78
2022/05/29 14:48:19;;;;;;;;;;;13.70;96.80;;;;;;4302860;33;43644;-78
2022/05/29 14:50:50;;;;;;;;;;;13.70;97.10;;;;;;4315852;33;44780;-77
2022/05/29 14:53:38;;;;;;;;;;;13.70;97.20;;;;;;4315873;33;44231;-77
2022/05/29 14:56:07;;;;;;;;;;;13.70;97.10;;;;;;4315916;33;44171;-78
2022/05/29 14:58:37;;;;;;;;;;;13.70;96.90;;;;;;4302371;33;42685;-77
2022/05/29 15:01:08;;;;;;;;;;;13.70;97.10;;;;;;4315688;33;42915;-78
2022/05/29 15:03:46;;;;;;;;;;;13.70;97.40;;;;;;4303894;33;20028;-77
2022/05/29 15:06:18;;;;;;;;;;;13.70;97.30;;;;;;4315754;33;43542;-77
2022/05/29 15:11:45;;;;;;;;;;;13.70;97.60;;;;;;4315187;33;42483;-77
2022/05/29 15:14:20;;;;;;;;;;;13.70;97.30;;;;;;4316880;33;43087;-77
2022/05/29 15:16:57;;;;;;;;;;;13.70;97.60;;;;;;4317982;33;42536;-78
2022/05/29 15:25:17;;;;;;;;;;;13.80;97.50;;;;;;4318226;33;43734;-78
2022/05/29 15:27:46;;;;;;;;;;;13.80;97.90;;;;;;4318010;33;44360;-78
2022/05/29 15:30:17;;;;;;;;;;;13.80;97.70;;;;;;4317972;33;43104;-78
2022/05/29 15:32:46;;;;;;;;;;;13.80;97.90;;;;;;4318110;33;45786;-78
2022/05/29 15:35:13;;;;;;;;;;;13.80;97.70;;;;;;4318051;33;43068;-78
2022/05/29 15:37:59;;;;;;;;;;;13.80;98.40;;;;;;4317949;33;43874;-78
2022/05/29 15:40:27;;;;;;;;;;;13.80;98.00;;;;;;4305276;33;43708;-78
2022/05/29 15:43:21;;;;;;;;;;;13.80;98.30;;;;;;4317430;33;43655;-78
2022/05/29 15:45:51;;;;;;;;;;;13.80;98.10;;;;;;4317361;33;42340;-78
2022/05/29 15:48:37;;;;;;;;;;;13.80;98.10;;;;;;4317526;33;44926;-78
2022/05/29 15:51:09;;;;;;;;;;;13.80;97.90;;;;;;4317711;33;42452;-78
2022/05/29 15:53:42;;;;;;;;;;;13.80;98.00;;;;;;4317853;33;45623;-78